Time;durP1;ratioP1;P1;durP2;ratioP2;P2;SDS_P1;SDS_P2;PMS_P1;PMS_P2;Temp;Humidity;BMP_temperature;BMP_pressure;BME280_temperature;BME280_humidity;BME280_pressure;Samples;Min_cycle;Max_cycle;Signal;HPM_P1;HPM_P2
2021/10/23 00:00:16;;;;;;;2.92;1.40;;;;;;;;;;5053766;28;20258;-84
2021/10/23 00:02:44;;;;;;;3.78;1.70;;;;;;;;;;5051597;28;20206;-84
2021/10/23 00:05:11;;;;;;;4.28;2.25;;;;;;;;;;5034090;28;20197;-85
2021/10/23 00:07:39;;;;;;;5.03;1.63;;;;;;;;;;5033308;28;20206;-85
2021/10/23 00:10:07;;;;;;;3.53;1.80;;;;;;;;;;5033371;28;20222;-85
2021/10/23 00:12:35;;;;;;;5.05;1.67;;;;;;;;;;5038639;28;20193;-85
2021/10/23 00:15:04;;;;;;;3.55;1.70;;;;;;;;;;5033069;28;20213;-85
2021/10/23 00:17:33;;;;;;;3.22;1.83;;;;;;;;;;5032946;28;20847;-85
2021/10/23 00:20:02;;;;;;;4.20;2.45;;;;;;;;;;5032814;28;20588;-85
2021/10/23 00:22:29;;;;;;;7.28;3.03;;;;;;;;;;5033273;27;20226;-85
2021/10/23 00:24:57;;;;;;;4.72;2.22;;;;;;;;;;5033308;28;20195;-84
2021/10/23 00:27:25;;;;;;;6.55;3.00;;;;;;;;;;5032013;27;20588;-84
2021/10/23 00:29:52;;;;;;;4.60;2.10;;;;;;;;;;5031826;28;20217;-83
2021/10/23 00:32:20;;;;;;;2.83;1.85;;;;;;;;;;5033140;28;20560;-84
2021/10/23 00:34:50;;;;;;;5.78;2.05;;;;;;;;;;5032179;28;20202;-85
2021/10/23 00:37:17;;;;;;;6.57;2.20;;;;;;;;;;5032333;28;20673;-85
2021/10/23 00:39:45;;;;;;;1.98;1.60;;;;;;;;;;5031806;28;20696;-84
2021/10/23 00:42:13;;;;;;;4.85;2.40;;;;;;;;;;5032253;28;20197;-85
2021/10/23 00:44:42;;;;;;;6.75;3.22;;;;;;;;;;5032994;28;20210;-85
2021/10/23 00:47:12;;;;;;;4.78;2.30;;;;;;;;;;5032818;28;20206;-84
2021/10/23 00:49:40;;;;;;;7.35;2.78;;;;;;;;;;5042734;27;20691;-85
2021/10/23 00:52:10;;;;;;;3.80;1.83;;;;;;;;;;5035600;28;20194;-84
2021/10/23 00:54:39;;;;;;;3.67;1.40;;;;;;;;;;5031326;28;20183;-85
2021/10/23 00:57:08;;;;;;;6.50;2.90;;;;;;;;;;5031387;28;20202;-84
2021/10/23 00:59:36;;;;;;;5.28;2.20;;;;;;;;;;5029536;28;20230;-84
2021/10/23 01:02:05;;;;;;;11.05;2.53;;;;;;;;;;5031020;28;20193;-85
2021/10/23 01:04:33;;;;;;;3.78;1.90;;;;;;;;;;5030991;28;20179;-84
2021/10/23 01:07:00;;;;;;;5.45;2.20;;;;;;;;;;5028904;27;20202;-85
2021/10/23 01:09:29;;;;;;;4.10;2.08;;;;;;;;;;5031176;28;20237;-84
2021/10/23 01:11:57;;;;;;;5.18;2.10;;;;;;;;;;5030910;28;20557;-84
2021/10/23 01:14:26;;;;;;;3.65;2.03;;;;;;;;;;5029779;28;20198;-84
2021/10/23 01:16:56;;;;;;;3.22;1.40;;;;;;;;;;5028915;27;20205;-85
2021/10/23 01:19:23;;;;;;;2.70;1.92;;;;;;;;;;5030542;28;20238;-85
2021/10/23 01:21:53;;;;;;;5.20;2.03;;;;;;;;;;5030455;28;20750;-85
2021/10/23 01:24:23;;;;;;;1.95;1.15;;;;;;;;;;5031008;28;20212;-84
2021/10/23 01:26:51;;;;;;;9.13;3.08;;;;;;;;;;5030123;27;20685;-84
2021/10/23 01:29:20;;;;;;;3.78;1.70;;;;;;;;;;5030626;28;20595;-84
2021/10/23 01:31:50;;;;;;;3.35;2.50;;;;;;;;;;5030512;28;20688;-85
2021/10/23 01:34:20;;;;;;;3.97;1.65;;;;;;;;;;5030876;28;20183;-84
2021/10/23 01:36:52;;;;;;;4.05;1.80;;;;;;;;;;5030473;28;20194;-84
2021/10/23 01:39:21;;;;;;;4.80;2.42;;;;;;;;;;5030459;28;20214;-85
2021/10/23 01:41:49;;;;;;;7.47;2.67;;;;;;;;;;5036336;27;20194;-85
2021/10/23 01:44:17;;;;;;;2.22;1.90;;;;;;;;;;5049633;28;20178;-84
2021/10/23 01:46:45;;;;;;;2.15;1.80;;;;;;;;;;5050598;28;20628;-84
2021/10/23 01:49:13;;;;;;;4.03;1.80;;;;;;;;;;5049077;28;20236;-83
2021/10/23 01:51:40;;;;;;;4.80;1.60;;;;;;;;;;5050276;28;20798;-85
2021/10/23 01:54:12;;;;;;;4.80;1.85;;;;;;;;;;5050665;28;20269;-84
2021/10/23 01:56:42;;;;;;;1.70;1.60;;;;;;;;;;5050133;28;20206;-84
2021/10/23 01:59:10;;;;;;;4.35;1.67;;;;;;;;;;5049870;28;20229;-84
2021/10/23 02:01:37;;;;;;;8.45;2.38;;;;;;;;;;5049841;28;20183;-84
2021/10/23 02:04:06;;;;;;;2.90;1.92;;;;;;;;;;5050100;28;20204;-84
2021/10/23 02:06:34;;;;;;;5.03;2.13;;;;;;;;;;5049856;27;20255;-84
2021/10/23 02:09:02;;;;;;;6.88;2.83;;;;;;;;;;5049616;28;20236;-84
2021/10/23 02:11:32;;;;;;;3.42;1.88;;;;;;;;;;5048315;28;20561;-84
2021/10/23 02:13:59;;;;;;;5.05;1.77;;;;;;;;;;5048926;28;20204;-84
2021/10/23 02:16:26;;;;;;;2.85;2.00;;;;;;;;;;5049712;28;20192;-84
2021/10/23 02:18:54;;;;;;;1.92;1.50;;;;;;;;;;5049532;27;20233;-83
2021/10/23 02:21:21;;;;;;;3.75;1.85;;;;;;;;;;5049779;28;20228;-84
2021/10/23 02:23:49;;;;;;;2.92;1.60;;;;;;;;;;5048095;28;20216;-84
2021/10/23 02:26:16;;;;;;;3.28;1.38;;;;;;;;;;5028636;28;20186;-84
2021/10/23 02:28:45;;;;;;;4.07;1.45;;;;;;;;;;5029677;28;20230;-83
2021/10/23 02:31:13;;;;;;;4.25;1.25;;;;;;;;;;5029747;28;20194;-84
2021/10/23 02:33:40;;;;;;;2.92;1.65;;;;;;;;;;5029895;28;20183;-84
2021/10/23 02:36:08;;;;;;;3.08;1.70;;;;;;;;;;5030048;28;20653;-84
2021/10/23 02:38:35;;;;;;;2.92;1.50;;;;;;;;;;5029056;28;20222;-83
2021/10/23 02:41:03;;;;;;;3.63;1.80;;;;;;;;;;5029025;28;20205;-84
2021/10/23 02:43:30;;;;;;;2.83;1.50;;;;;;;;;;5029765;28;20582;-84
2021/10/23 02:45:59;;;;;;;2.55;1.75;;;;;;;;;;5029503;28;20211;-83
2021/10/23 02:48:26;;;;;;;2.42;1.50;;;;;;;;;;5029495;28;20234;-84
2021/10/23 02:50:54;;;;;;;1.85;1.60;;;;;;;;;;5029697;27;20214;-84
2021/10/23 02:53:21;;;;;;;2.95;1.60;;;;;;;;;;5029683;27;20195;-84
2021/10/23 02:55:49;;;;;;;3.65;1.88;;;;;;;;;;5029857;28;20193;-84
2021/10/23 02:58:17;;;;;;;2.80;1.52;;;;;;;;;;5029491;28;20215;-85
2021/10/23 03:00:44;;;;;;;1.50;1.40;;;;;;;;;;5030182;28;20187;-84
2021/10/23 03:03:13;;;;;;;5.25;2.50;;;;;;;;;;5029823;28;20578;-84
2021/10/23 03:05:41;;;;;;;4.05;1.55;;;;;;;;;;5029399;28;20649;-84
2021/10/23 03:08:09;;;;;;;2.30;1.63;;;;;;;;;;5028148;27;20229;-83
2021/10/23 03:10:37;;;;;;;2.80;1.90;;;;;;;;;;5029234;28;20640;-84
2021/10/23 03:13:05;;;;;;;4.95;1.83;;;;;;;;;;5029661;28;20190;-84
2021/10/23 03:15:32;;;;;;;2.15;1.30;;;;;;;;;;5029600;28;20191;-84
2021/10/23 03:18:00;;;;;;;3.42;2.03;;;;;;;;;;5028930;27;20203;-84
2021/10/23 03:20:29;;;;;;;3.50;2.42;;;;;;;;;;5028457;28;20183;-84
2021/10/23 03:22:57;;;;;;;3.85;1.67;;;;;;;;;;5028967;28;20241;-84
2021/10/23 03:25:24;;;;;;;2.45;1.50;;;;;;;;;;5029435;28;20621;-84
2021/10/23 03:27:51;;;;;;;4.50;2.33;;;;;;;;;;5029367;28;20194;-84
2021/10/23 03:30:19;;;;;;;4.90;2.40;;;;;;;;;;5031614;28;20206;-84
2021/10/23 03:32:46;;;;;;;2.88;1.55;;;;;;;;;;5033058;28;20202;-84
2021/10/23 03:35:14;;;;;;;4.50;1.70;;;;;;;;;;5031342;28;20210;-85
2021/10/23 03:37:42;;;;;;;2.15;1.50;;;;;;;;;;5032431;28;20552;-84
2021/10/23 03:40:11;;;;;;;5.03;2.72;;;;;;;;;;5032574;28;20222;-84
2021/10/23 03:42:38;;;;;;;4.90;1.48;;;;;;;;;;5032347;28;20201;-84
2021/10/23 03:45:06;;;;;;;2.47;1.77;;;;;;;;;;5032474;28;20214;-84
2021/10/23 03:47:34;;;;;;;5.50;2.45;;;;;;;;;;5035439;28;20194;-84
2021/10/23 03:50:04;;;;;;;3.13;1.52;;;;;;;;;;5048019;28;20226;-84
2021/10/23 03:52:31;;;;;;;3.63;2.00;;;;;;;;;;5032345;28;20286;-84
2021/10/23 03:55:01;;;;;;;3.95;1.75;;;;;;;;;;5032689;27;20226;-84
2021/10/23 03:57:28;;;;;;;5.07;2.72;;;;;;;;;;5032569;28;20625;-84
2021/10/23 03:59:56;;;;;;;5.78;2.00;;;;;;;;;;5039833;28;20210;-83
2021/10/23 04:02:23;;;;;;;4.82;2.42;;;;;;;;;;5031744;28;20213;-84
2021/10/23 04:04:51;;;;;;;4.82;2.10;;;;;;;;;;5031044;28;20199;-84
2021/10/23 04:07:19;;;;;;;4.47;2.65;;;;;;;;;;5032056;27;20203;-84
2021/10/23 04:09:46;;;;;;;4.38;2.30;;;;;;;;;;5044458;28;20218;-84
2021/10/23 04:12:15;;;;;;;4.50;2.30;;;;;;;;;;5032010;28;20213;-84
2021/10/23 04:14:43;;;;;;;9.93;2.42;;;;;;;;;;5032067;28;20175;-84
2021/10/23 04:17:10;;;;;;;5.18;2.58;;;;;;;;;;5031665;28;20602;-85
2021/10/23 04:19:38;;;;;;;6.38;1.92;;;;;;;;;;5031514;28;20233;-84
2021/10/23 04:22:05;;;;;;;3.70;2.00;;;;;;;;;;5031719;28;20273;-84
2021/10/23 04:24:33;;;;;;;4.75;2.92;;;;;;;;;;5032003;28;20193;-84
2021/10/23 04:27:00;;;;;;;3.10;2.10;;;;;;;;;;5049511;28;20214;-84
2021/10/23 04:29:29;;;;;;;4.97;2.35;;;;;;;;;;5037435;28;20221;-84
2021/10/23 04:31:57;;;;;;;2.80;2.05;;;;;;;;;;5049802;28;20290;-84
2021/10/23 04:34:24;;;;;;;3.38;1.70;;;;;;;;;;5041808;28;20199;-84
2021/10/23 04:36:52;;;;;;;4.80;1.90;;;;;;;;;;5045414;28;20250;-83
2021/10/23 04:39:19;;;;;;;5.10;2.60;;;;;;;;;;5049869;28;20218;-84
2021/10/23 04:41:49;;;;;;;4.38;2.22;;;;;;;;;;5051909;28;20209;-84
2021/10/23 04:44:17;;;;;;;2.17;2.00;;;;;;;;;;5030698;28;20195;-84
2021/10/23 04:46:46;;;;;;;3.03;1.73;;;;;;;;;;5030075;28;20189;-84
2021/10/23 04:49:13;;;;;;;5.38;2.20;;;;;;;;;;5032035;28;20225;-84
2021/10/23 04:51:41;;;;;;;3.05;2.00;;;;;;;;;;5030832;28;20183;-85
2021/10/23 04:54:08;;;;;;;4.38;2.08;;;;;;;;;;5031125;28;20591;-84
2021/10/23 04:56:36;;;;;;;3.33;2.35;;;;;;;;;;5031317;28;20186;-84
2021/10/23 04:59:03;;;;;;;3.85;2.28;;;;;;;;;;5031597;28;20726;-83
2021/10/23 05:01:31;;;;;;;4.30;2.30;;;;;;;;;;5032119;28;20205;-84
2021/10/23 05:04:00;;;;;;;2.60;2.08;;;;;;;;;;5031053;28;20209;-84
2021/10/23 05:06:27;;;;;;;6.88;3.70;;;;;;;;;;5031754;28;20206;-83
2021/10/23 05:08:55;;;;;;;5.78;2.22;;;;;;;;;;5031593;28;20218;-84
2021/10/23 05:11:23;;;;;;;5.65;2.35;;;;;;;;;;5031862;28;20688;-85
2021/10/23 05:13:51;;;;;;;4.03;2.20;;;;;;;;;;5037105;28;20550;-85
2021/10/23 05:16:18;;;;;;;3.85;2.28;;;;;;;;;;5032048;28;20195;-84
2021/10/23 05:18:48;;;;;;;5.93;2.42;;;;;;;;;;5050157;28;20214;-85
2021/10/23 05:21:18;;;;;;;5.28;2.58;;;;;;;;;;5051663;28;20255;-84
2021/10/23 05:23:47;;;;;;;3.10;2.25;;;;;;;;;;5051930;28;20205;-84
2021/10/23 05:26:14;;;;;;;6.65;2.53;;;;;;;;;;5041895;27;20649;-86
2021/10/23 05:28:42;;;;;;;7.75;1.80;;;;;;;;;;5038589;28;20224;-84
2021/10/23 05:31:10;;;;;;;7.45;3.03;;;;;;;;;;5051036;27;20224;-82
2021/10/23 05:33:37;;;;;;;3.42;1.80;;;;;;;;;;5035979;28;20191;-83
2021/10/23 05:36:06;;;;;;;4.03;2.45;;;;;;;;;;5051187;28;20204;-83
2021/10/23 05:38:35;;;;;;;4.45;2.47;;;;;;;;;;5047285;28;20218;-83
2021/10/23 05:41:02;;;;;;;3.00;1.85;;;;;;;;;;5031484;28;20183;-84
2021/10/23 05:43:30;;;;;;;5.63;2.60;;;;;;;;;;5040977;28;20230;-83
2021/10/23 05:45:57;;;;;;;4.18;2.92;;;;;;;;;;5031443;28;20578;-84
2021/10/23 05:48:24;;;;;;;4.65;2.38;;;;;;;;;;5042708;28;20210;-84
2021/10/23 05:50:52;;;;;;;3.35;1.80;;;;;;;;;;5030112;28;20221;-87
2021/10/23 05:53:19;;;;;;;3.75;1.75;;;;;;;;;;5030243;28;20198;-85
2021/10/23 05:55:48;;;;;;;2.00;1.60;;;;;;;;;;5030749;28;20191;-85
2021/10/23 05:58:16;;;;;;;2.63;1.85;;;;;;;;;;5030170;28;20708;-85
2021/10/23 06:00:49;;;;;;;3.65;1.50;;;;;;;;;;5034417;28;20182;-86
2021/10/23 06:03:20;;;;;;;5.65;2.70;;;;;;;;;;5050055;28;20181;-86
2021/10/23 06:05:48;;;;;;;5.40;3.33;;;;;;;;;;5047482;28;20620;-85
2021/10/23 06:08:15;;;;;;;5.45;3.80;;;;;;;;;;5042898;28;20224;-86
2021/10/23 06:10:44;;;;;;;3.03;2.25;;;;;;;;;;5038740;28;20222;-87
2021/10/23 06:13:13;;;;;;;3.03;1.92;;;;;;;;;;5050493;28;20559;-86
2021/10/23 06:15:42;;;;;;;4.57;3.17;;;;;;;;;;5038797;28;20276;-86
2021/10/23 06:18:09;;;;;;;2.95;2.22;;;;;;;;;;5031331;28;20304;-86
2021/10/23 06:20:36;;;;;;;4.30;2.80;;;;;;;;;;5036936;28;20189;-86
2021/10/23 06:23:04;;;;;;;1.90;1.50;;;;;;;;;;5049679;28;20222;-86
2021/10/23 06:25:31;;;;;;;4.63;2.22;;;;;;;;;;5030601;28;20201;-85
2021/10/23 06:28:00;;;;;;;1.58;1.48;;;;;;;;;;5042954;28;20194;-87
2021/10/23 06:30:28;;;;;;;1.25;1.15;;;;;;;;;;5046911;27;20358;-87
2021/10/23 06:32:58;;;;;;;1.45;1.35;;;;;;;;;;5029809;28;20205;-85
2021/10/23 06:35:26;;;;;;;6.25;2.58;;;;;;;;;;5044495;28;20221;-86
2021/10/23 06:37:54;;;;;;;3.33;2.00;;;;;;;;;;5049170;28;20212;-87
2021/10/23 06:40:24;;;;;;;1.70;1.60;;;;;;;;;;5030610;28;20669;-88
2021/10/23 06:42:52;;;;;;;1.45;1.35;;;;;;;;;;5029528;28;20637;-89
2021/10/23 06:45:20;;;;;;;1.52;1.42;;;;;;;;;;5041228;28;20273;-89
2021/10/23 06:47:52;;;;;;;1.70;1.33;;;;;;;;;;5034539;27;20201;-87
2021/10/23 06:50:20;;;;;;;1.38;1.27;;;;;;;;;;5029246;27;20202;-88
2021/10/23 06:52:49;;;;;;;1.95;1.45;;;;;;;;;;5029546;28;20583;-87
2021/10/23 06:55:18;;;;;;;1.50;1.40;;;;;;;;;;5029442;28;20179;-88
2021/10/23 06:57:54;;;;;;;1.77;1.20;;;;;;;;;;5028526;28;20206;-90
2021/10/23 07:00:34;;;;;;;1.70;1.30;;;;;;;;;;5029564;28;20183;-87
2021/10/23 07:03:09;;;;;;;1.45;1.35;;;;;;;;;;5029590;28;20179;-87
2021/10/23 07:05:37;;;;;;;2.03;1.73;;;;;;;;;;5045013;28;20197;-87
2021/10/23 07:08:07;;;;;;;1.60;1.50;;;;;;;;;;5052933;28;20210;-88
2021/10/23 07:10:38;;;;;;;2.05;1.85;;;;;;;;;;5053602;28;20201;-89
2021/10/23 07:13:25;;;;;;;1.73;1.63;;;;;;;;;;5048230;27;20195;-89
2021/10/23 07:16:05;;;;;;;5.88;2.55;;;;;;;;;;5032745;28;20182;-87
2021/10/23 07:18:40;;;;;;;1.98;1.65;;;;;;;;;;5033335;28;20216;-87
2021/10/23 07:21:33;;;;;;;3.00;1.73;;;;;;;;;;5033252;28;20208;-85
2021/10/23 07:24:22;;;;;;;2.95;2.03;;;;;;;;;;5035203;27;20233;-86
2021/10/23 07:26:58;;;;;;;2.15;1.63;;;;;;;;;;5035892;27;20203;-86
2021/10/23 07:30:03;;;;;;;2.17;1.52;;;;;;;;;;5034371;28;20222;-87
2021/10/23 07:32:30;;;;;;;2.88;2.00;;;;;;;;;;5035772;28;20209;-84
2021/10/23 07:35:00;;;;;;;1.80;1.70;;;;;;;;;;5032992;28;20186;-88
2021/10/23 07:37:28;;;;;;;1.70;1.60;;;;;;;;;;5041234;28;20190;-87
2021/10/23 07:40:09;;;;;;;1.85;1.63;;;;;;;;;;5032419;28;20210;-87
2021/10/23 07:42:38;;;;;;;3.40;1.98;;;;;;;;;;5032311;27;20199;-88
2021/10/23 07:45:08;;;;;;;2.28;1.90;;;;;;;;;;5037099;28;20201;-86
2021/10/23 07:47:39;;;;;;;5.70;3.45;;;;;;;;;;5046181;27;20199;-85
2021/10/23 07:50:10;;;;;;;3.30;3.00;;;;;;;;;;5032042;28;20229;-86
2021/10/23 07:52:44;;;;;;;2.88;2.10;;;;;;;;;;5031705;28;20218;-87
2021/10/23 07:55:12;;;;;;;2.38;2.08;;;;;;;;;;5032256;28;20195;-86
2021/10/23 07:57:40;;;;;;;2.08;1.88;;;;;;;;;;5031644;27;20206;-86
2021/10/23 08:00:10;;;;;;;4.75;2.92;;;;;;;;;;5044074;28;20847;-87
2021/10/23 08:02:47;;;;;;;3.67;2.30;;;;;;;;;;5051305;27;20194;-84
2021/10/23 08:05:16;;;;;;;2.55;2.00;;;;;;;;;;5031996;28;20187;-86
2021/10/23 08:07:45;;;;;;;7.88;2.90;;;;;;;;;;5031778;28;20191;-86
2021/10/23 08:10:12;;;;;;;4.68;3.33;;;;;;;;;;5102398;27;20218;-85
2021/10/23 08:12:41;;;;;;;6.95;3.97;;;;;;;;;;5155546;27;20209;-86
2021/10/23 08:15:10;;;;;;;4.68;3.60;;;;;;;;;;5156366;27;20186;-86
2021/10/23 08:17:38;;;;;;;3.38;3.08;;;;;;;;;;5156736;27;20191;-85
2021/10/23 08:20:07;;;;;;;2.55;2.28;;;;;;;;;;5103520;27;20228;-87
2021/10/23 08:22:37;;;;;;;2.40;2.20;;;;;;;;;;5051005;28;20233;-87
2021/10/23 08:25:08;;;;;;;3.45;2.65;;;;;;;;;;5050925;28;20183;-87
2021/10/23 08:27:37;;;;;;;2.63;2.00;;;;;;;;;;5050913;27;20182;-86
2021/10/23 08:30:06;;;;;;;1.73;1.63;;;;;;;;;;5051008;28;20233;-87
2021/10/23 08:32:34;;;;;;;3.10;2.22;;;;;;;;;;5039508;28;20210;-87
2021/10/23 08:35:01;;;;;;;5.90;5.28;;;;;;;;;;5031083;28;20602;-86
2021/10/23 08:37:29;;;;;;;5.32;3.97;;;;;;;;;;5030523;28;20198;-86
2021/10/23 08:39:57;;;;;;;5.47;4.07;;;;;;;;;;5038501;28;20213;-87
2021/10/23 08:42:25;;;;;;;4.10;2.42;;;;;;;;;;5030793;28;20193;-86
2021/10/23 08:44:57;;;;;;;4.72;4.35;;;;;;;;;;5031549;28;20187;-87
2021/10/23 08:47:25;;;;;;;7.03;6.07;;;;;;;;;;5030870;27;20297;-86
2021/10/23 08:49:53;;;;;;;13.02;11.63;;;;;;;;;;5030847;28;20227;-86
2021/10/23 08:52:20;;;;;;;7.45;6.38;;;;;;;;;;5031535;28;20688;-87
2021/10/23 08:54:48;;;;;;;7.40;6.63;;;;;;;;;;5031745;28;20763;-84
2021/10/23 08:57:17;;;;;;;6.72;4.15;;;;;;;;;;5032124;27;20252;-84
2021/10/23 08:59:55;;;;;;;4.15;3.42;;;;;;;;;;5032569;28;20227;-85
2021/10/23 09:02:24;;;;;;;3.75;2.80;;;;;;;;;;5030620;28;20191;-86
2021/10/23 09:04:53;;;;;;;5.82;2.75;;;;;;;;;;5030458;28;20183;-86
2021/10/23 09:07:22;;;;;;;9.57;3.53;;;;;;;;;;5031108;28;20191;-85
2021/10/23 09:09:52;;;;;;;2.75;2.20;;;;;;;;;;5031035;27;20286;-84
2021/10/23 09:12:24;;;;;;;2.90;2.10;;;;;;;;;;5031296;28;20619;-86
2021/10/23 09:15:06;;;;;;;2.70;1.70;;;;;;;;;;5032001;28;20281;-86
2021/10/23 09:17:34;;;;;;;3.22;1.77;;;;;;;;;;5031759;28;20210;-85
2021/10/23 09:20:08;;;;;;;4.18;2.08;;;;;;;;;;5032557;28;20261;-83
2021/10/23 09:22:39;;;;;;;7.25;2.17;;;;;;;;;;5030928;28;20235;-86
2021/10/23 09:25:20;;;;;;;3.85;2.70;;;;;;;;;;5033210;28;20221;-85
2021/10/23 09:27:55;;;;;;;4.30;2.35;;;;;;;;;;5030354;28;20186;-86
2021/10/23 09:30:30;;;;;;;2.33;2.10;;;;;;;;;;5032628;28;20190;-85
2021/10/23 09:33:04;;;;;;;7.57;3.08;;;;;;;;;;5032044;27;20218;-84
2021/10/23 09:35:32;;;;;;;5.85;2.67;;;;;;;;;;5031903;28;20183;-85
2021/10/23 09:38:01;;;;;;;5.75;2.40;;;;;;;;;;5031921;28;20687;-85
2021/10/23 09:40:31;;;;;;;7.05;2.30;;;;;;;;;;5032970;28;20190;-85
2021/10/23 09:43:11;;;;;;;2.53;1.80;;;;;;;;;;5031219;28;20194;-85
2021/10/23 09:45:55;;;;;;;3.78;2.05;;;;;;;;;;5031518;28;20183;-85
2021/10/23 09:48:30;;;;;;;4.88;2.30;;;;;;;;;;5030962;27;20226;-85
2021/10/23 09:51:10;;;;;;;3.67;1.80;;;;;;;;;;5031239;28;20194;-86
2021/10/23 09:53:38;;;;;;;4.28;2.47;;;;;;;;;;5030220;28;20696;-86
2021/10/23 09:56:08;;;;;;;3.75;2.10;;;;;;;;;;5033343;28;20183;-86
2021/10/23 09:58:37;;;;;;;5.13;2.53;;;;;;;;;;5031273;28;20226;-85
2021/10/23 10:01:05;;;;;;;5.00;2.60;;;;;;;;;;5031016;28;20209;-86
2021/10/23 10:03:33;;;;;;;2.33;1.92;;;;;;;;;;5030832;28;20707;-86
2021/10/23 10:06:02;;;;;;;4.93;2.00;;;;;;;;;;5030316;28;20237;-86
2021/10/23 10:08:30;;;;;;;5.82;2.17;;;;;;;;;;5032355;28;20222;-86
2021/10/23 10:10:58;;;;;;;5.88;2.85;;;;;;;;;;5030788;27;20202;-85
2021/10/23 10:13:27;;;;;;;3.47;1.92;;;;;;;;;;5029925;28;20207;-85
2021/10/23 10:15:59;;;;;;;3.83;2.30;;;;;;;;;;5030786;28;20179;-86
2021/10/23 10:18:27;;;;;;;6.18;2.63;;;;;;;;;;5031904;28;20215;-86
2021/10/23 10:20:57;;;;;;;4.70;2.00;;;;;;;;;;5031196;28;20194;-86
2021/10/23 10:23:32;;;;;;;4.13;2.20;;;;;;;;;;5029769;28;20279;-85
2021/10/23 10:26:34;;;;;;;6.10;2.63;;;;;;;;;;5030698;28;20186;-86
2021/10/23 10:29:25;;;;;;;10.20;3.80;;;;;;;;;;4951474;29;20224;-86
2021/10/23 10:32:01;;;;;;;3.85;1.92;;;;;;;;;;5028110;27;20207;-87
2021/10/23 10:38:07;;;;;;;5.88;3.25;;;;;;;;;;5031969;28;20201;-85
2021/10/23 10:42:41;;;;;;;4.32;2.10;;;;;;;;;;5036199;28;20194;-85
2021/10/23 10:44:13;;;;;;;3.33;1.42;;;;;;;;;;5036279;28;20198;-87
2021/10/23 10:47:07;;;;;;;2.42;1.40;;;;;;;;;;5035092;28;20209;-84
2021/10/23 10:49:54;;;;;;;1.75;1.35;;;;;;;;;;5033869;27;20233;-84
2021/10/23 10:52:57;;;;;;;2.08;1.63;;;;;;;;;;5037191;28;20209;-85
2021/10/23 10:55:25;;;;;;;3.15;1.40;;;;;;;;;;4994631;27;20202;-84
2021/10/23 10:58:02;;;;;;;4.05;1.80;;;;;;;;;;5035570;27;20209;-84
2021/10/23 11:01:13;;;;;;;2.58;1.50;;;;;;;;;;5037012;28;20262;-85
2021/10/23 11:04:06;;;;;;;3.47;2.00;;;;;;;;;;5030534;28;20668;-84
2021/10/23 11:07:03;;;;;;;7.35;2.22;;;;;;;;;;5035379;27;20194;-86
2021/10/23 11:09:43;;;;;;;2.70;1.50;;;;;;;;;;5035457;28;20222;-86
2021/10/23 11:12:30;;;;;;;4.22;1.77;;;;;;;;;;5033317;28;20197;-85
2021/10/23 11:15:00;;;;;;;3.38;2.00;;;;;;;;;;5034596;28;20214;-85
2021/10/23 11:17:28;;;;;;;4.50;1.95;;;;;;;;;;5035278;28;20183;-86
2021/10/23 11:20:01;;;;;;;1.80;1.27;;;;;;;;;;5035038;28;20234;-84
2021/10/23 11:22:32;;;;;;;1.40;1.23;;;;;;;;;;5035079;27;20227;-84
2021/10/23 11:25:05;;;;;;;2.25;1.65;;;;;;;;;;5034163;28;20274;-84
2021/10/23 11:27:43;;;;;;;1.65;1.23;;;;;;;;;;5035897;28;20281;-84
2021/10/23 11:30:20;;;;;;;2.22;1.88;;;;;;;;;;5034043;28;20222;-85
2021/10/23 11:32:53;;;;;;;2.83;1.70;;;;;;;;;;5035422;27;20195;-85
2021/10/23 11:35:32;;;;;;;3.42;1.50;;;;;;;;;;5034151;28;20202;-84
2021/10/23 11:38:00;;;;;;;4.68;1.70;;;;;;;;;;5035210;28;20677;-83
2021/10/23 11:40:27;;;;;;;2.72;2.13;;;;;;;;;;5035895;28;20193;-83
2021/10/23 11:42:55;;;;;;;3.08;1.90;;;;;;;;;;5035470;28;20213;-84
2021/10/23 11:45:25;;;;;;;3.42;1.73;;;;;;;;;;5035723;28;20198;-84
2021/10/23 11:47:54;;;;;;;3.70;1.80;;;;;;;;;;5035382;28;20637;-83
2021/10/23 11:50:26;;;;;;;3.70;2.00;;;;;;;;;;5035236;28;20183;-83
2021/10/23 11:52:55;;;;;;;2.15;1.45;;;;;;;;;;5035311;28;20198;-83
2021/10/23 11:55:33;;;;;;;2.10;1.48;;;;;;;;;;5034627;28;20277;-85
2021/10/23 11:58:01;;;;;;;4.15;1.90;;;;;;;;;;5034727;28;20190;-85
2021/10/23 12:00:31;;;;;;;2.58;1.40;;;;;;;;;;5035574;28;20213;-84
2021/10/23 12:03:03;;;;;;;4.38;1.60;;;;;;;;;;5035386;28;20190;-84
2021/10/23 12:05:41;;;;;;;1.58;1.42;;;;;;;;;;5033931;28;20205;-84
2021/10/23 12:08:20;;;;;;;3.03;1.73;;;;;;;;;;5033773;28;20179;-85
2021/10/23 12:11:17;;;;;;;5.07;1.60;;;;;;;;;;5035285;28;20250;-84
2021/10/23 12:14:08;;;;;;;2.45;1.20;;;;;;;;;;5042233;28;20588;-84
2021/10/23 12:16:41;;;;;;;3.47;1.88;;;;;;;;;;5053885;28;20247;-84
2021/10/23 12:19:14;;;;;;;1.52;1.05;;;;;;;;;;5053896;28;20230;-83
2021/10/23 12:21:50;;;;;;;1.42;0.98;;;;;;;;;;5051701;28;20700;-85
2021/10/23 12:24:25;;;;;;;1.80;1.30;;;;;;;;;;5053200;28;20688;-84
2021/10/23 12:27:19;;;;;;;2.30;1.30;;;;;;;;;;5054074;28;20277;-83
2021/10/23 12:29:49;;;;;;;3.08;1.60;;;;;;;;;;5053223;28;20225;-84
2021/10/23 12:32:19;;;;;;;3.78;1.85;;;;;;;;;;5054374;28;20190;-84
2021/10/23 12:35:07;;;;;;;3.03;1.42;;;;;;;;;;5033539;28;20252;-83
2021/10/23 12:37:46;;;;;;;2.47;1.83;;;;;;;;;;5034319;28;20265;-84
2021/10/23 12:40:21;;;;;;;2.00;1.42;;;;;;;;;;5033919;28;20250;-85
2021/10/23 12:42:51;;;;;;;2.05;1.10;;;;;;;;;;5034837;28;20198;-84
2021/10/23 12:45:22;;;;;;;1.10;1.00;;;;;;;;;;5034385;28;20198;-83
2021/10/23 12:47:50;;;;;;;2.53;1.20;;;;;;;;;;5034999;28;20239;-84
2021/10/23 12:50:25;;;;;;;4.15;2.55;;;;;;;;;;5035322;28;20191;-83
2021/10/23 12:52:55;;;;;;;3.55;2.28;;;;;;;;;;5032995;28;20183;-83
2021/10/23 12:55:26;;;;;;;2.15;1.23;;;;;;;;;;5033169;28;20203;-83
2021/10/23 12:57:54;;;;;;;1.45;0.85;;;;;;;;;;5033039;28;20210;-85
2021/10/23 13:00:24;;;;;;;1.02;0.90;;;;;;;;;;5033096;28;20182;-83
2021/10/23 13:02:54;;;;;;;2.95;1.20;;;;;;;;;;5031149;28;20186;-85
2021/10/23 13:05:28;;;;;;;1.70;1.60;;;;;;;;;;5032897;28;20194;-85
2021/10/23 13:07:58;;;;;;;2.90;1.20;;;;;;;;;;5032636;28;20186;-83
2021/10/23 13:10:33;;;;;;;2.97;2.10;;;;;;;;;;5032584;28;20214;-83
2021/10/23 13:13:00;;;;;;;3.83;1.20;;;;;;;;;;5033226;28;20281;-84
2021/10/23 13:15:30;;;;;;;2.28;1.30;;;;;;;;;;5032499;28;20223;-84
2021/10/23 13:17:57;;;;;;;1.67;1.58;;;;;;;;;;5031950;28;20701;-83
2021/10/23 13:20:26;;;;;;;1.58;1.27;;;;;;;;;;5032448;28;20648;-83
2021/10/23 13:23:00;;;;;;;2.10;1.30;;;;;;;;;;5031661;28;20230;-83
2021/10/23 13:25:30;;;;;;;3.83;2.25;;;;;;;;;;5031950;28;20198;-86
2021/10/23 13:27:58;;;;;;;5.28;1.40;;;;;;;;;;5032154;28;20195;-83
2021/10/23 13:30:28;;;;;;;1.33;0.80;;;;;;;;;;5032272;28;20201;-84
2021/10/23 13:32:56;;;;;;;2.13;1.40;;;;;;;;;;5031757;28;20187;-83
2021/10/23 13:35:24;;;;;;;5.57;1.50;;;;;;;;;;5031424;28;20210;-84
2021/10/23 13:38:21;;;;;;;2.25;1.98;;;;;;;;;;5032167;28;20676;-84
2021/10/23 13:40:49;;;;;;;3.05;1.30;;;;;;;;;;5031790;28;20235;-83
2021/10/23 13:43:22;;;;;;;1.50;1.20;;;;;;;;;;5032239;28;20247;-85
2021/10/23 13:46:01;;;;;;;2.75;1.20;;;;;;;;;;5032773;28;20210;-83
2021/10/23 13:48:31;;;;;;;4.03;1.20;;;;;;;;;;5032149;27;20238;-85
2021/10/23 13:51:00;;;;;;;0.80;0.80;;;;;;;;;;5031847;28;20194;-84
2021/10/23 13:53:38;;;;;;;1.80;1.13;;;;;;;;;;5031685;28;20199;-84
2021/10/23 13:56:07;;;;;;;2.08;1.20;;;;;;;;;;5031689;28;20206;-83
2021/10/23 13:58:36;;;;;;;1.75;1.30;;;;;;;;;;5031901;28;20290;-85
2021/10/23 14:01:05;;;;;;;1.63;1.25;;;;;;;;;;5031830;28;20193;-84
2021/10/23 14:03:33;;;;;;;0.98;0.98;;;;;;;;;;5031392;28;20206;-84
2021/10/23 14:06:02;;;;;;;1.77;0.90;;;;;;;;;;5031854;28;20191;-85
2021/10/23 14:08:32;;;;;;;2.00;1.45;;;;;;;;;;5032440;28;20229;-83
2021/10/23 14:11:01;;;;;;;2.88;1.17;;;;;;;;;;5034621;28;20190;-83
2021/10/23 14:13:36;;;;;;;1.55;0.88;;;;;;;;;;5035228;28;20193;-83
2021/10/23 14:16:04;;;;;;;2.40;1.20;;;;;;;;;;5049102;28;20215;-83
2021/10/23 14:18:35;;;;;;;1.60;0.90;;;;;;;;;;5044362;28;20609;-84
2021/10/23 14:21:04;;;;;;;1.55;1.45;;;;;;;;;;5051347;28;20589;-83
2021/10/23 14:23:34;;;;;;;1.92;1.05;;;;;;;;;;5036481;28;20262;-83
2021/10/23 14:26:05;;;;;;;1.40;1.00;;;;;;;;;;5039740;28;20277;-84
2021/10/23 14:28:40;;;;;;;1.83;1.15;;;;;;;;;;5033840;28;20218;-83
2021/10/23 14:31:11;;;;;;;1.42;1.02;;;;;;;;;;5032323;28;20277;-83
2021/10/23 14:33:49;;;;;;;0.80;0.80;;;;;;;;;;5032093;28;20182;-83
2021/10/23 14:36:22;;;;;;;3.25;2.05;;;;;;;;;;5031994;28;20695;-83
2021/10/23 14:39:05;;;;;;;4.47;2.00;;;;;;;;;;5032157;28;20237;-83
2021/10/23 14:41:35;;;;;;;2.03;1.38;;;;;;;;;;5033076;28;20202;-84
2021/10/23 14:44:06;;;;;;;1.10;1.00;;;;;;;;;;5114716;27;20187;-83
2021/10/23 14:46:36;;;;;;;1.67;1.20;;;;;;;;;;5156793;27;20270;-82
2021/10/23 14:49:13;;;;;;;1.00;0.90;;;;;;;;;;5157022;27;20218;-82
2021/10/23 14:51:42;;;;;;;0.60;0.60;;;;;;;;;;5156891;27;20189;-84
2021/10/23 14:54:16;;;;;;;1.13;1.10;;;;;;;;;;5157299;27;20179;-83
2021/10/23 14:56:47;;;;;;;0.98;0.90;;;;;;;;;;5156528;27;20221;-82
2021/10/23 14:59:15;;;;;;;1.20;0.82;;;;;;;;;;5157075;27;20222;-83
2021/10/23 15:01:53;;;;;;;0.90;0.90;;;;;;;;;;5156990;27;20186;-83
2021/10/23 15:04:22;;;;;;;1.17;0.73;;;;;;;;;;5157122;27;20202;-84
2021/10/23 15:06:50;;;;;;;0.80;0.80;;;;;;;;;;5156143;27;20194;-84
2021/10/23 15:09:19;;;;;;;1.80;1.30;;;;;;;;;;5155962;27;20235;-83